Buoy 41991

sailwx.info

Track history (hours):
 
Tides and Currents Weather Stations Pressure Air Temp Water Temp Dewpoint Dewpoint Depression Visibility Wind Speed Wind Dir Waves Ship Positions

Drifting buoy 41991

Last reported at 2014-Sep-30 14:20 UTC. Time now 2014-Sep-30 15:55 UTC.
Position N 34°16' W 045°36'.

Water temperature 25.2 ° C

Date/timePositionNaut miles runAvg speedWind from/ knotsBaromVisibWave heightAir tempDewpointWater temp
2014-Sep-30 14:20N 34°16' W 045°36'1 0.8 25.2
2014-Sep-30 13:31N 34°16' W 045°35'0 0.0 25.2
2014-Sep-30 12:38N 34°16' W 045°35'0 3.3 25.2
2014-Sep-30 12:31N 34°17' W 045°35'1 0.8 25.2
2014-Sep-30 11:44N 34°17' W 045°35'0 0.0 25.2
2014-Sep-30 10:55N 34°17' W 045°35'0 0.0 25.1
2014-Sep-30 10:21N 34°17' W 045°35'0 1.4 25.2
2014-Sep-30 10:08N 34°17' W 045°35'0 3.1 25.1
2014-Sep-30 10:03N 34°17' W 045°35'0 0.0 25.1
2014-Sep-30 09:56N 34°17' W 045°35'1 9.3 25.2
2014-Sep-30 09:52N 34°18' W 045°35'0 0.4 25.2
2014-Sep-30 08:27N 34°18' W 045°34'0 0.2 25.2
2014-Sep-30 08:14N 34°18' W 045°34'1 1.0 25.2
2014-Sep-30 07:40N 34°18' W 045°34'0 0.0
2014-Sep-30 06:59N 34°18' W 045°34'0 0.9 25.2
2014-Sep-30 06:29N 34°19' W 045°34'0 0.0 25.2
2014-Sep-30 06:07N 34°19' W 045°34'0 0.0 25.2
2014-Sep-30 06:04N 34°19' W 045°34'1 0.4 25.2
2014-Sep-30 04:26N 34°19' W 045°34'1 9.5 25.3
2014-Sep-30 04:19N 34°20' W 045°34'0 0.0 25.3
2014-Sep-30 02:00N 34°20' W 045°34'0 2.3 25.4
2014-Sep-30 01:54N 34°20' W 045°33'0 0.0 25.4
2014-Sep-30 01:10N 34°20' W 045°33'0 6.3 25.4
2014-Sep-30 01:06N 34°21' W 045°33'0 0.0 25.4
2014-Sep-30 00:21N 34°21' W 045°33'0 0.0 25.4
2014-Sep-30 00:13N 34°21' W 045°33'0 0.5 25.4
2014-Sep-29 23:32N 34°21' W 045°33'0 2.7 25.4
2014-Sep-29 23:24N 34°21' W 045°33'0 0.0 25.4
2014-Sep-29 23:07N 34°21' W 045°33'0 0.5 25.4
2014-Sep-29 22:40N 34°21' W 045°33'0 3.1 25.5
2014-Sep-29 22:33N 34°22' W 045°33'0 0.0 25.5
2014-Sep-29 21:50N 34°22' W 045°33'0 1.1 25.5
2014-Sep-29 21:30N 34°22' W 045°34'1 0.5 25.5
2014-Sep-29 20:12N 34°22' W 045°33'0 1.9 25.6
2014-Sep-29 20:06N 34°22' W 045°33'0 0.0 25.6
2014-Sep-29 19:54N 34°22' W 045°33'1 3.7 25.7
2014-Sep-29 19:41N 34°23' W 045°34'0 0.3 25.7
2014-Sep-29 18:27N 34°23' W 045°33'0 0.0 25.8
2014-Sep-29 18:12N 34°23' W 045°33'012.3 25.8
2014-Sep-29 18:11N 34°23' W 045°33'0 0.2 25.8
2014-Sep-29 17:44N 34°23' W 045°33'0 0.3 25.9
2014-Sep-29 15:59N 34°24' W 045°33'1 0.6 26.0
2014-Sep-29 14:40N 34°25' W 045°33'0 0.1 26.0
2014-Sep-29 13:54N 34°25' W 045°33'1 0.6 25.9
2014-Sep-29 12:09N 34°25' W 045°32'0 0.0 25.4
2014-Sep-29 11:20N 34°25' W 045°32'1 7.5 25.3
2014-Sep-29 11:13N 34°26' W 045°33'0 0.0 25.2
2014-Sep-29 10:48N 34°26' W 045°33'0 1.1 25.2
2014-Sep-29 10:29N 34°26' W 045°33'0 0.3 25.2
2014-Sep-29 10:02N 34°26' W 045°33'0 0.0 25.2
2014-Sep-29 09:14N 34°26' W 045°33'0 0.7 25.2
2014-Sep-29 08:47N 34°27' W 045°33'0 0.0 25.2
2014-Sep-29 08:26N 34°27' W 045°33'0 1.9 25.2
2014-Sep-29 08:18N 34°27' W 045°33'0 0.0 25.2
2014-Sep-29 07:32N 34°27' W 045°33'1 2.1 25.2
2014-Sep-29 07:11N 34°28' W 045°33'0 0.0 25.2
2014-Sep-29 06:49N 34°28' W 045°33'0 1.2 25.2
2014-Sep-29 06:40N 34°28' W 045°33'0 0.0 25.2
2014-Sep-29 06:14N 34°28' W 045°33'135.0 25.2
2014-Sep-29 06:12N 34°29' W 045°34'0 0.0 25.2
2014-Sep-29 04:37N 34°29' W 045°34'1 7.2 25.2
2014-Sep-29 04:28N 34°30' W 045°34'0 0.0 25.2
2014-Sep-29 01:32N 34°30' W 045°34'0 0.1 25.2
2014-Sep-29 00:42N 34°30' W 045°34'0 2.0 25.2
2014-Sep-29 00:28N 34°30' W 045°35'0 0.0
2014-Sep-28 23:54N 34°30' W 045°35'1 0.6 25.2
2014-Sep-28 22:59N 34°30' W 045°35'1 8.6 25.2
2014-Sep-28 22:53N 34°30' W 045°34'0 0.0 25.2
2014-Sep-28 22:00N 34°30' W 045°34'1 0.5 25.2
2014-Sep-28 20:38N 34°31' W 045°34'0 0.7 25.2
2014-Sep-28 20:13N 34°31' W 045°34'0 0.5 25.2
2014-Sep-28 20:04N 34°31' W 045°34'1 0.8 25.2
2014-Sep-28 18:56N 34°32' W 045°35'0 0.4 25.3
2014-Sep-28 18:24N 34°32' W 045°35'0 0.6 25.2
2014-Sep-28 17:54N 34°32' W 045°35'1 0.7 25.2
2014-Sep-28 16:14N 34°33' W 045°36'0 4.2 25.2
2014-Sep-28 16:08N 34°33' W 045°36'1 0.9 25.2
2014-Sep-28 14:59N 34°34' W 045°37'0 0.0 25.2
2014-Sep-28 14:32N 34°34' W 045°37'1 1.4 25.2
2014-Sep-28 14:11N 34°34' W 045°37'1 8.9 25.2
2014-Sep-28 14:05N 34°34' W 045°38'0 0.0 25.2
2014-Sep-28 12:27N 34°34' W 045°38'0 4.7 25.1
2014-Sep-28 12:24N 34°34' W 045°39'0 0.0 25.2
2014-Sep-28 11:41N 34°34' W 045°39'1 5.4 25.2
2014-Sep-28 11:35N 34°34' W 045°39'0 0.0 25.2
2014-Sep-28 10:54N 34°34' W 045°39'0 0.0 25.2
2014-Sep-28 10:13N 34°34' W 045°39'0 0.0 25.2
2014-Sep-28 09:45N 34°34' W 045°39'0 1.8 25.2
2014-Sep-28 09:43N 34°34' W 045°39'0 0.6 25.2
2014-Sep-28 09:13N 34°34' W 045°40'0 7.4 25.2
2014-Sep-28 09:11N 34°34' W 045°40'0 0.0 25.2
2014-Sep-28 08:37N 34°34' W 045°40'0 3.0 25.3
2014-Sep-28 08:28N 34°34' W 045°40'0 0.5
2014-Sep-28 08:07N 34°34' W 045°40'0 0.3 25.2
2014-Sep-28 07:37N 34°34' W 045°40'0 0.1 25.3
2014-Sep-28 06:59N 34°34' W 045°40'0 1.3 25.3
2014-Sep-28 06:50N 34°34' W 045°40'1 2.1 25.3
2014-Sep-28 06:31N 34°35' W 045°41'0 0.1 25.3
2014-Sep-28 04:51N 34°35' W 045°41'0 1.5 25.3
2014-Sep-28 04:47N 34°35' W 045°41'218.4 25.3
2014-Sep-28 04:40N 34°36' W 045°43'0 0.0 25.3
2014-Sep-28 01:45N 34°36' W 045°43'0 0.2
2014-Sep-28 00:59N 34°36' W 045°43'1 1.5 25.4
2014-Sep-28 00:12N 34°35' W 045°45'1 0.7 25.4
2014-Sep-27 23:23N 34°36' W 045°45'0 1.8 25.4
2014-Sep-27 23:14N 34°36' W 045°45'0 0.0 25.4
2014-Sep-27 22:33N 34°36' W 045°45'0 6.0 25.4
2014-Sep-27 22:29N 34°36' W 045°46'0 0.2 25.4
2014-Sep-27 21:00N 34°36' W 045°46'0 2.6 25.5
2014-Sep-27 20:53N 34°36' W 045°46'0 2.0 25.5
2014-Sep-27 20:44N 34°36' W 045°46'0 0.9 25.5
2014-Sep-27 20:14N 34°36' W 045°47'0 0.6 25.6
2014-Sep-27 19:22N 34°36' W 045°47'0 0.4 25.6
2014-Sep-27 18:35N 34°36' W 045°47'0 1.2 25.7
2014-Sep-27 18:30N 34°36' W 045°47'0 0.7 25.7
2014-Sep-27 18:05N 34°36' W 045°47'1 1.5 25.7
2014-Sep-27 17:38N 34°36' W 045°48'0 0.0 25.7
2014-Sep-27 16:52N 34°36' W 045°48'1 1.3 25.7
2014-Sep-27 16:25N 34°36' W 045°48'0 0.0 25.6
2014-Sep-27 14:44N 34°36' W 045°48'0 2.0 25.4
2014-Sep-27 14:33N 34°36' W 045°48'1 9.6 25.4
2014-Sep-27 14:26N 34°37' W 045°49'0 0.0 25.4
2014-Sep-27 13:43N 34°37' W 045°49'0 0.0 25.4
2014-Sep-27 12:55N 34°37' W 045°49'0 0.0 25.3
2014-Sep-27 12:51N 34°37' W 045°49'0 0.3 25.3
2014-Sep-27 12:00N 34°37' W 045°49'1 7.6 25.3
2014-Sep-27 11:56N 34°37' W 045°49'1 0.3 25.3
2014-Sep-27 10:13N 34°37' W 045°50'0 0.4 25.2
2014-Sep-27 09:42N 34°37' W 045°50'0 3.3 25.2
2014-Sep-27 09:35N 34°38' W 045°50'0 0.0 25.2
2014-Sep-27 08:52N 34°38' W 045°50'0 1.0 25.2
2014-Sep-27 08:49N 34°38' W 045°50'110.9 25.2
2014-Sep-27 08:45N 34°38' W 045°51'1 5.9 25.2
2014-Sep-27 08:38N 34°38' W 045°50'1 0.5 25.2
2014-Sep-27 07:11N 34°38' W 045°51'0 1.7 25.2
2014-Sep-27 07:00N 34°38' W 045°51'0 4.1
2014-Sep-27 06:56N 34°38' W 045°51'0 1.2 25.3
2014-Sep-27 06:42N 34°38' W 045°51'1 3.6 25.3
2014-Sep-27 06:31N 34°39' W 045°51'0 0.0 25.3
2014-Sep-27 04:59N 34°39' W 045°51'210.2 25.3
2014-Sep-27 04:50N 34°40' W 045°53'0 0.0 25.3
2014-Sep-27 01:21N 34°40' W 045°53'0 2.4 25.3
2014-Sep-27 01:14N 34°40' W 045°53'1 1.1 25.3
2014-Sep-27 00:33N 34°40' W 045°54'0 0.2 25.3
2014-Sep-26 22:58N 34°41' W 045°54'115.6 25.4
2014-Sep-26 22:55N 34°41' W 045°54'0 0.3 25.4
2014-Sep-26 22:00N 34°41' W 045°54'0 0.0 25.4
2014-Sep-26 21:24N 34°41' W 045°54'0 2.0 25.4
2014-Sep-26 21:13N 34°41' W 045°54'0 0.0 25.4
2014-Sep-26 20:27N 34°41' W 045°54'1 2.0 25.4
2014-Sep-26 19:46N 34°42' W 045°56'0 0.0 25.4
2014-Sep-26 19:39N 34°42' W 045°56'0 0.0 25.4
2014-Sep-26 18:47N 34°42' W 045°56'0 4.1 25.4
2014-Sep-26 18:42N 34°42' W 045°55'0 7.4 25.4
2014-Sep-26 18:40N 34°42' W 045°55'0 0.0 25.4
2014-Sep-26 18:13N 34°42' W 045°55'0 2.1 25.4
2014-Sep-26 18:04N 34°42' W 045°56'1 0.5 25.4
2014-Sep-26 17:04N 34°43' W 045°56'0 0.0 25.4
2014-Sep-26 16:37N 34°43' W 045°56'1 0.6 25.4
2014-Sep-26 14:55N 34°44' W 045°57'1 1.0 25.4
2014-Sep-26 14:00N 34°44' W 045°56'0 0.0
2014-Sep-26 13:14N 34°44' W 045°56'2 2.4 25.4
2014-Sep-26 12:22N 34°45' W 045°58'1 7.6 25.3
2014-Sep-26 12:13N 34°46' W 045°59'0 0.0 25.3
2014-Sep-26 10:44N 34°46' W 045°59'0 0.0 25.3
2014-Sep-26 10:08N 34°46' W 045°59'0 3.0 25.3
2014-Sep-26 10:03N 34°46' W 045°59'111.4 25.3
2014-Sep-26 09:59N 34°46' W 045°60'0 0.0 25.3
2014-Sep-26 09:09N 34°46' W 045°60'0 0.9 25.3
2014-Sep-26 08:58N 34°46' W 045°60'0 2.8 25.3
2014-Sep-26 08:53N 34°46' W 045°60'0 0.0 25.3
2014-Sep-26 08:25N 34°46' W 045°60'0 0.5 25.3
2014-Sep-26 07:28N 34°47' W 046°00'0 0.6 25.3
2014-Sep-26 07:13N 34°47' W 046°00'0 9.5 25.3
2014-Sep-26 07:11N 34°47' W 046°00'0 0.0 25.3
2014-Sep-26 06:52N 34°47' W 046°00'1 4.6 25.3
2014-Sep-26 06:41N 34°48' W 046°00'0 0.0 25.3
2014-Sep-26 05:10N 34°48' W 046°00'430.5 25.3
2014-Sep-26 05:03N 34°51' W 046°03'0 0.0 25.3
2014-Sep-26 01:42N 34°51' W 046°03'0 4.9 25.3
2014-Sep-26 01:36N 34°51' W 046°03'1 1.5 25.3
2014-Sep-26 00:55N 34°53' W 046°03'0 0.0 25.3
2014-Sep-25 23:58N 34°53' W 046°03'1 1.9 25.4
2014-Sep-25 23:28N 34°53' W 046°04'0 0.6 25.3
2014-Sep-25 23:12N 34°53' W 046°04'1 1.3 25.4
2014-Sep-25 22:22N 34°54' W 046°04'0 2.9 25.4
2014-Sep-25 22:17N 34°54' W 046°04'0 0.0 25.4
2014-Sep-25 21:55N 34°54' W 046°04'1 9.0 25.4
2014-Sep-25 21:48N 34°55' W 046°05'1 9.0 25.4
2014-Sep-25 21:44N 34°55' W 046°05'0 0.1 25.4
2014-Sep-25 20:38N 34°55' W 046°05'1 2.7 25.4
2014-Sep-25 20:08N 34°56' W 046°05'0 0.0 25.4
2014-Sep-25 18:59N 34°56' W 046°05'0 2.9 25.4
2014-Sep-25 18:51N 34°57' W 046°06'1 1.5 25.4
2014-Sep-25 18:26N 34°57' W 046°06'114.0 25.4
2014-Sep-25 18:21N 34°58' W 046°06'1 0.5 25.4
2014-Sep-25 17:13N 34°59' W 046°07'0 0.0 25.4
2014-Sep-25 16:47N 34°59' W 046°07'3 1.7 25.4
2014-Sep-25 15:05N 35°01' W 046°08'0 0.5 25.4
2014-Sep-25 14:24N 35°01' W 046°08'0 0.0 25.4
2014-Sep-25 13:36N 35°01' W 046°08'3 2.5 25.4
2014-Sep-25 12:35N 35°03' W 046°10'0 0.0 25.4
2014-Sep-25 11:49N 35°03' W 046°10'2 2.4 25.4
2014-Sep-25 10:59N 35°05' W 046°10'0 0.0 25.4
2014-Sep-25 10:27N 35°05' W 046°10'0 0.5 25.4
2014-Sep-25 09:37N 35°06' W 046°10'0 0.0 25.4
2014-Sep-25 09:14N 35°06' W 046°10'0 6.9 25.4
2014-Sep-25 09:12N 35°06' W 046°10'0 2.9 25.4
2014-Sep-25 09:05N 35°06' W 046°09'0 0.0 25.4
2014-Sep-25 08:49N 35°06' W 046°09'1 1.5 25.4
2014-Sep-25 07:59N 35°07' W 046°10'1 1.4 25.4
2014-Sep-25 07:32N 35°08' W 046°10'0 3.1 25.4
2014-Sep-25 07:28N 35°08' W 046°11'0 4.9 25.4
2014-Sep-25 07:23N 35°08' W 046°10'0 0.0 25.4
2014-Sep-25 07:11N 35°08' W 046°10'0 1.3 25.4
2014-Sep-25 07:00N 35°08' W 046°10'223.8 25.4
2014-Sep-25 06:55N 35°10' W 046°11'0 0.0 25.4
2014-Sep-25 05:20N 35°10' W 046°11'218.9 25.4
2014-Sep-25 05:13N 35°12' W 046°12'0 0.0 25.4
2014-Sep-25 03:40N 35°12' W 046°12'226.9 25.4
2014-Sep-25 03:35N 35°14' W 046°12'0 0.0 25.4
2014-Sep-25 01:58N 35°14' W 046°12'139.7 25.4
2014-Sep-25 01:57N 35°15' W 046°12'1 1.5 25.4
2014-Sep-25 01:14N 35°16' W 046°13'0 0.1 25.4
2014-Sep-25 00:24N 35°16' W 046°13'2 2.3 25.4
2014-Sep-24 23:32N 35°18' W 046°14'0 0.0 25.4
2014-Sep-24 22:44N 35°18' W 046°14'0 1.1 25.4
2014-Sep-24 22:37N 35°18' W 046°14'1 7.9 25.4
2014-Sep-24 22:26N 35°19' W 046°14'0 0.0 25.4
2014-Sep-24 20:48N 35°19' W 046°14'0 2.5 25.4
2014-Sep-24 20:43N 35°19' W 046°13'0 0.0 25.5
2014-Sep-24 20:36N 35°19' W 046°13'2 1.0 25.5
2014-Sep-24 19:10N 35°21' W 046°14'0 1.4 25.5
2014-Sep-24 19:05N 35°21' W 046°14'0 0.0 25.5
2014-Sep-24 18:54N 35°21' W 046°14'2 5.8 25.5
2014-Sep-24 18:34N 35°23' W 046°14'1 0.6 25.5
2014-Sep-24 17:27N 35°23' W 046°14'0 0.0 25.4
2014-Sep-24 16:58N 35°23' W 046°14'2 1.1 25.4
2014-Sep-24 15:13N 35°25' W 046°14'1 2.2 25.4
2014-Sep-24 14:43N 35°26' W 046°14'0 0.1 25.3
2014-Sep-24 13:54N 35°26' W 046°14'111.0 25.3
2014-Sep-24 13:47N 35°27' W 046°15'0 0.0 25.3
2014-Sep-24 12:11N 35°27' W 046°15'0 7.2 25.2
2014-Sep-24 12:09N 35°28' W 046°15'1 1.4 25.2
2014-Sep-24 11:19N 35°29' W 046°15'0 0.0 25.2
2014-Sep-24 10:53N 35°29' W 046°15'0 0.2 25.2
2014-Sep-24 10:10N 35°29' W 046°15'1 0.9 25.2
2014-Sep-24 09:23N 35°29' W 046°15'2 1.1 25.2
2014-Sep-24 07:40N 35°31' W 046°15'117.6 25.2
2014-Sep-24 07:36N 35°32' W 046°14'0 0.0 25.2
2014-Sep-24 07:27N 35°32' W 046°14'0 0.0 25.2
2014-Sep-24 07:13N 35°32' W 046°14'1 5.2 25.2
2014-Sep-24 07:06N 35°32' W 046°14'0 0.0 25.2
2014-Sep-24 06:50N 35°32' W 046°14'2 2.0 25.2
2014-Sep-24 05:57N 35°34' W 046°14'0 0.0 25.2
2014-Sep-24 05:32N 35°34' W 046°14'0 0.0 25.3
2014-Sep-24 05:26N 35°34' W 046°14'0 0.0 25.3
2014-Sep-24 03:52N 35°34' W 046°14'220.2 25.5
2014-Sep-24 03:46N 35°36' W 046°13'0 0.0 25.5
2014-Sep-24 01:34N 35°36' W 046°13'0 0.0 25.7
2014-Sep-24 00:46N 35°36' W 046°13'0 0.9 25.7
2014-Sep-24 00:41N 35°36' W 046°13'0 0.4 25.7
2014-Sep-23 23:56N 35°37' W 046°13'0 0.0 25.7
2014-Sep-23 23:55N 35°37' W 046°13'0 3.4 25.7
2014-Sep-23 23:51N 35°37' W 046°13'1 1.0 25.7
2014-Sep-23 22:59N 35°38' W 046°13'123.3 25.7
2014-Sep-23 22:56N 35°39' W 046°13'0 0.3 25.7
2014-Sep-23 21:07N 35°39' W 046°12'0 0.0 25.8
2014-Sep-23 21:00N 35°39' W 046°12'112.6 25.8
2014-Sep-23 20:56N 35°40' W 046°12'0 0.1 25.8
2014-Sep-23 19:31N 35°40' W 046°12'0 2.7 25.8
2014-Sep-23 19:22N 35°40' W 046°12'0 4.1 25.8
2014-Sep-23 19:18N 35°40' W 046°12'1 0.6 25.9
2014-Sep-23 17:40N 35°41' W 046°12'0 0.9 25.8
2014-Sep-23 17:10N 35°41' W 046°12'1 0.4 25.8
2014-Sep-23 15:26N 35°42' W 046°12'0 0.3 25.8
2014-Sep-23 14:13N 35°42' W 046°12'0 5.5 25.7
2014-Sep-23 14:08N 35°42' W 046°11'0 0.0 25.7
2014-Sep-23 13:14N 35°42' W 046°11'0 0.0 25.7
2014-Sep-23 12:33N 35°42' W 046°11'1 1.2 25.7
2014-Sep-23 11:45N 35°42' W 046°10'1 7.6 25.8
2014-Sep-23 11:36N 35°43' W 046°09'0 0.0 25.8
2014-Sep-23 10:39N 35°43' W 046°09'0 0.0 25.8
2014-Sep-23 09:42N 35°43' W 046°09'0 0.9 25.9
2014-Sep-23 09:33N 35°43' W 046°09'112.8 25.9
2014-Sep-23 09:28N 35°44' W 046°08'1 1.7 25.9
2014-Sep-23 08:59N 35°44' W 046°09'1 0.8 25.9
2014-Sep-23 07:57N 35°44' W 046°08'0 0.0 25.9
2014-Sep-23 07:53N 35°44' W 046°08'1 3.8 25.9
2014-Sep-23 07:44N 35°44' W 046°08'0 0.5
2014-Sep-23 07:23N 35°45' W 046°08'1 7.2 25.9
2014-Sep-23 07:18N 35°45' W 046°07'0 0.0 25.9
2014-Sep-23 06:13N 35°45' W 046°07'0 2.9 25.9
2014-Sep-23 06:08N 35°45' W 046°07'0 0.0 25.9
2014-Sep-23 05:45N 35°45' W 046°07'0 0.0 25.9
2014-Sep-23 05:41N 35°45' W 046°07'0 5.4 25.9
2014-Sep-23 05:38N 35°45' W 046°07'1 0.5 25.9
2014-Sep-23 04:00N 35°46' W 046°06'010.7 26.0
2014-Sep-23 03:58N 35°46' W 046°07'1 0.6 26.0
2014-Sep-23 01:53N 35°46' W 046°05'0 0.0 26.0
2014-Sep-23 01:07N 35°46' W 046°05'0 0.4 26.0
2014-Sep-23 01:00N 35°46' W 046°05'1 1.2 26.0
2014-Sep-23 00:19N 35°47' W 046°04'0 0.0 26.0
2014-Sep-23 00:13N 35°47' W 046°04'0 7.5 26.0
2014-Sep-23 00:10N 35°46' W 046°04'1 1.3
2014-Sep-22 23:18N 35°47' W 046°03'0 0.0 26.0
2014-Sep-22 22:37N 35°47' W 046°03'0 0.0 26.0
2014-Sep-22 21:49N 35°47' W 046°03'0 1.0 26.0
2014-Sep-22 21:24N 35°46' W 046°04'2 7.5 26.0
2014-Sep-22 21:08N 35°47' W 046°01'1 0.7 26.0
2014-Sep-22 20:07N 35°47' W 046°02'1 5.8 26.0
2014-Sep-22 20:00N 35°47' W 046°01'1 3.6 26.0
2014-Sep-22 19:46N 35°47' W 046°02'1 3.9 26.0
2014-Sep-22 19:33N 35°47' W 046°01'1 0.7 26.0
2014-Sep-22 18:02N 35°48' W 046°01'1 3.9 26.0
2014-Sep-22 17:52N 35°48' W 046°01'1 1.2 26.0
2014-Sep-22 17:21N 35°47' W 046°00'0 0.1 26.0
2014-Sep-22 15:40N 35°47' W 046°00'0 7.0 25.9
2014-Sep-22 15:38N 35°47' W 045°60'1 0.7 25.9
2014-Sep-22 14:35N 35°47' W 045°59'1 1.4 25.9
2014-Sep-22 13:45N 35°48' W 045°58'0 0.0 25.9
2014-Sep-22 12:59N 35°48' W 045°58'1 6.9 25.9
2014-Sep-22 12:48N 35°48' W 045°56'0 0.0 25.9
2014-Sep-22 12:06N 35°48' W 045°56'1 6.8 25.9
2014-Sep-22 11:58N 35°48' W 045°55'0 0.0 25.9
2014-Sep-22 10:06N 35°48' W 045°55'0 1.5 25.9
2014-Sep-22 09:57N 35°48' W 045°55'0 0.0 25.9
2014-Sep-22 09:47N 35°48' W 045°55'213.6 25.9
2014-Sep-22 09:39N 35°49' W 045°53'0 0.0 25.9
2014-Sep-22 08:23N 35°49' W 045°53'0 0.0 25.9
2014-Sep-22 08:05N 35°49' W 045°53'0 0.0 25.9
2014-Sep-22 07:56N 35°49' W 045°53'0 1.0 25.9
2014-Sep-22 07:29N 35°49' W 045°52'1 0.5 26.0
2014-Sep-22 06:20N 35°49' W 045°52'0 0.2 26.0
2014-Sep-22 05:53N 35°49' W 045°52'0 4.6 26.0
2014-Sep-22 05:48N 35°49' W 045°51'0 0.0 26.0
2014-Sep-22 04:13N 35°49' W 045°51'218.4 26.0
2014-Sep-22 04:08N 35°49' W 045°50'0 0.0 26.0
2014-Sep-22 01:25N 35°49' W 045°50'1 8.4 26.0
2014-Sep-22 01:18N 35°49' W 045°48'0 0.1 26.0
2014-Sep-22 00:39N 35°49' W 045°48'0 0.0 26.0
2014-Sep-21 23:53N 35°49' W 045°48'0 0.0 26.0
2014-Sep-21 23:47N 35°49' W 045°48'0 0.4 26.0
2014-Sep-21 23:40N 35°49' W 045°48'0 0.3 26.0
2014-Sep-21 22:57N 35°49' W 045°48'1 5.0 26.1
2014-Sep-21 22:50N 35°49' W 045°47'0 0.0 26.1
2014-Sep-21 22:20N 35°49' W 045°47'1 2.9 26.1
2014-Sep-21 22:04N 35°49' W 045°47'2 5.7 26.1
2014-Sep-21 21:42N 35°48' W 045°45'0 0.0 26.1
2014-Sep-21 20:31N 35°48' W 045°45'0 0.3 26.1
2014-Sep-21 20:10N 35°48' W 045°45'0 0.0 26.1
2014-Sep-21 19:45N 35°48' W 045°45'0 0.2 26.1
2014-Sep-21 18:30N 35°48' W 045°45'0 3.6 26.1
2014-Sep-21 18:26N 35°48' W 045°45'1 2.2 26.1
2014-Sep-21 18:00N 35°48' W 045°44'1 1.4 26.2
2014-Sep-21 17:31N 35°48' W 045°43'1 0.5 26.2
2014-Sep-21 15:51N 35°48' W 045°42'0 1.5 26.2
2014-Sep-21 15:49N 35°48' W 045°42'2 2.2 26.2
2014-Sep-21 14:51N 35°48' W 045°39'0 0.0 26.2
2014-Sep-21 14:06N 35°48' W 045°39'0 0.0 26.2
2014-Sep-21 13:12N 35°48' W 045°39'0 0.5 26.2
2014-Sep-21 12:24N 35°48' W 045°39'1 6.6 26.2
2014-Sep-21 12:19N 35°48' W 045°38'0 0.0 26.2
2014-Sep-21 11:36N 35°48' W 045°38'111.0 26.2
2014-Sep-21 11:31N 35°49' W 045°38'0 0.0 26.2
2014-Sep-21 10:28N 35°49' W 045°38'111.9 26.2
2014-Sep-21 10:25N 35°49' W 045°37'0 1.2 26.2
2014-Sep-21 10:00N 35°48' W 045°38'0 1.8 26.2
2014-Sep-21 09:51N 35°49' W 045°37'0 0.1 26.2
2014-Sep-21 08:52N 35°49' W 045°37'0 1.4 26.2
2014-Sep-21 08:47N 35°49' W 045°37'0 0.8 26.2
2014-Sep-21 08:20N 35°48' W 045°37'0 0.0 26.2
2014-Sep-21 08:13N 35°48' W 045°37'115.6 26.2
2014-Sep-21 08:11N 35°49' W 045°36'0 0.0 26.2
2014-Sep-21 07:43N 35°49' W 045°36'0 0.0 26.2
2014-Sep-21 07:09N 35°49' W 045°36'0 1.0 26.2
2014-Sep-21 06:45N 35°49' W 045°37'0 3.2 26.2
2014-Sep-21 06:37N 35°48' W 045°37'0 3.4 26.2
2014-Sep-21 06:29N 35°48' W 045°36'0 0.0 26.2
2014-Sep-21 06:06N 35°48' W 045°36'1 7.5 26.2
2014-Sep-21 05:59N 35°48' W 045°35'0 0.0 26.2
2014-Sep-21 04:25N 35°48' W 045°35'319.8 26.2
2014-Sep-21 04:17N 35°46' W 045°33'0 0.0 26.2
2014-Sep-21 01:46N 35°46' W 045°33'0 0.0 26.2
2014-Sep-21 01:00N 35°46' W 045°33'134.7 26.2
2014-Sep-21 00:58N 35°46' W 045°31'0 0.0 26.2
2014-Sep-21 00:08N 35°46' W 045°31'0 0.0 26.2
2014-Sep-20 23:59N 35°46' W 045°31'0 0.0 26.2
2014-Sep-20 23:13N 35°46' W 045°31'119.7 26.2
2014-Sep-20 23:11N 35°46' W 045°31'0 0.9 26.2
2014-Sep-20 22:49N 35°46' W 045°30'0 0.0 26.2
2014-Sep-20 22:26N 35°46' W 045°30'214.7 26.2
2014-Sep-20 22:19N 35°46' W 045°28'0 0.0 26.2
2014-Sep-20 21:02N 35°46' W 045°28'0 0.2 26.3
2014-Sep-20 20:34N 35°46' W 045°28'0 0.5 26.3
2014-Sep-20 19:55N 35°46' W 045°28'1 4.0 26.3
2014-Sep-20 19:47N 35°46' W 045°27'0 0.1 26.3
2014-Sep-20 18:54N 35°46' W 045°27'1 1.7 26.3
2014-Sep-20 18:13N 35°47' W 045°26'0 0.2 26.3
2014-Sep-20 17:43N 35°47' W 045°26'1 0.3 26.4
2014-Sep-20 15:59N 35°46' W 045°25'1 0.9 26.4
2014-Sep-20 14:26N 35°46' W 045°23'   26.4
Track history (hours):
 
Tides and Currents Weather Stations Pressure Air Temp Water Temp Dewpoint Dewpoint Depression Visibility Wind Speed Wind Dir Waves Ship Positions

Drifting buoy 41991

Last reported at 2014-Sep-30 14:20 UTC. Time now 2014-Sep-30 15:55 UTC.
Position N 34°16' W 045°36'.

Water temperature 25.2 ° C

Date/timePositionNaut miles runAvg speedWind from/ knotsBaromVisibWave heightAir tempDewpointWater temp
2014-Sep-30 14:20N 34°16' W 045°36'1 0.8 25.2
2014-Sep-30 13:31N 34°16' W 045°35'0 0.0 25.2
2014-Sep-30 12:38N 34°16' W 045°35'0 3.3 25.2
2014-Sep-30 12:31N 34°17' W 045°35'1 0.8 25.2
2014-Sep-30 11:44N 34°17' W 045°35'0 0.0 25.2
2014-Sep-30 10:55N 34°17' W 045°35'0 0.0 25.1
2014-Sep-30 10:21N 34°17' W 045°35'0 1.4 25.2
2014-Sep-30 10:08N 34°17' W 045°35'0 3.1 25.1
2014-Sep-30 10:03N 34°17' W 045°35'0 0.0 25.1
2014-Sep-30 09:56N 34°17' W 045°35'1 9.3 25.2
2014-Sep-30 09:52N 34°18' W 045°35'0 0.4 25.2
2014-Sep-30 08:27N 34°18' W 045°34'0 0.2 25.2
2014-Sep-30 08:14N 34°18' W 045°34'1 1.0 25.2
2014-Sep-30 07:40N 34°18' W 045°34'0 0.0
2014-Sep-30 06:59N 34°18' W 045°34'0 0.9 25.2
2014-Sep-30 06:29N 34°19' W 045°34'0 0.0 25.2
2014-Sep-30 06:07N 34°19' W 045°34'0 0.0 25.2
2014-Sep-30 06:04N 34°19' W 045°34'1 0.4 25.2
2014-Sep-30 04:26N 34°19' W 045°34'1 9.5 25.3
2014-Sep-30 04:19N 34°20' W 045°34'0 0.0 25.3
2014-Sep-30 02:00N 34°20' W 045°34'0 2.3 25.4
2014-Sep-30 01:54N 34°20' W 045°33'0 0.0 25.4
2014-Sep-30 01:10N 34°20' W 045°33'0 6.3 25.4
2014-Sep-30 01:06N 34°21' W 045°33'0 0.0 25.4
2014-Sep-30 00:21N 34°21' W 045°33'0 0.0 25.4
2014-Sep-30 00:13N 34°21' W 045°33'0 0.5 25.4
2014-Sep-29 23:32N 34°21' W 045°33'0 2.7 25.4
2014-Sep-29 23:24N 34°21' W 045°33'0 0.0 25.4
2014-Sep-29 23:07N 34°21' W 045°33'0 0.5 25.4
2014-Sep-29 22:40N 34°21' W 045°33'0 3.1 25.5
2014-Sep-29 22:33N 34°22' W 045°33'0 0.0 25.5
2014-Sep-29 21:50N 34°22' W 045°33'0 1.1 25.5
2014-Sep-29 21:30N 34°22' W 045°34'1 0.5 25.5
2014-Sep-29 20:12N 34°22' W 045°33'0 1.9 25.6
2014-Sep-29 20:06N 34°22' W 045°33'0 0.0 25.6
2014-Sep-29 19:54N 34°22' W 045°33'1 3.7 25.7
2014-Sep-29 19:41N 34°23' W 045°34'0 0.3 25.7
2014-Sep-29 18:27N 34°23' W 045°33'0 0.0 25.8
2014-Sep-29 18:12N 34°23' W 045°33'012.3 25.8
2014-Sep-29 18:11N 34°23' W 045°33'0 0.2 25.8
2014-Sep-29 17:44N 34°23' W 045°33'0 0.3 25.9
2014-Sep-29 15:59N 34°24' W 045°33'1 0.6 26.0
2014-Sep-29 14:40N 34°25' W 045°33'0 0.1 26.0
2014-Sep-29 13:54N 34°25' W 045°33'1 0.6 25.9
2014-Sep-29 12:09N 34°25' W 045°32'0 0.0 25.4
2014-Sep-29 11:20N 34°25' W 045°32'1 7.5 25.3
2014-Sep-29 11:13N 34°26' W 045°33'0 0.0 25.2
2014-Sep-29 10:48N 34°26' W 045°33'0 1.1 25.2
2014-Sep-29 10:29N 34°26' W 045°33'0 0.3 25.2
2014-Sep-29 10:02N 34°26' W 045°33'0 0.0 25.2
2014-Sep-29 09:14N 34°26' W 045°33'0 0.7 25.2
2014-Sep-29 08:47N 34°27' W 045°33'0 0.0 25.2
2014-Sep-29 08:26N 34°27' W 045°33'0 1.9 25.2
2014-Sep-29 08:18N 34°27' W 045°33'0 0.0 25.2
2014-Sep-29 07:32N 34°27' W 045°33'1 2.1 25.2
2014-Sep-29 07:11N 34°28' W 045°33'0 0.0 25.2
2014-Sep-29 06:49N 34°28' W 045°33'0 1.2 25.2
2014-Sep-29 06:40N 34°28' W 045°33'0 0.0 25.2
2014-Sep-29 06:14N 34°28' W 045°33'135.0 25.2
2014-Sep-29 06:12N 34°29' W 045°34'0 0.0 25.2
2014-Sep-29 04:37N 34°29' W 045°34'1 7.2 25.2
2014-Sep-29 04:28N 34°30' W 045°34'0 0.0 25.2
2014-Sep-29 01:32N 34°30' W 045°34'0 0.1 25.2
2014-Sep-29 00:42N 34°30' W 045°34'0 2.0 25.2
2014-Sep-29 00:28N 34°30' W 045°35'0 0.0
2014-Sep-28 23:54N 34°30' W 045°35'1 0.6 25.2
2014-Sep-28 22:59N 34°30' W 045°35'1 8.6 25.2
2014-Sep-28 22:53N 34°30' W 045°34'0 0.0 25.2
2014-Sep-28 22:00N 34°30' W 045°34'1 0.5 25.2
2014-Sep-28 20:38N 34°31' W 045°34'0 0.7 25.2
2014-Sep-28 20:13N 34°31' W 045°34'0 0.5 25.2
2014-Sep-28 20:04N 34°31' W 045°34'1 0.8 25.2
2014-Sep-28 18:56N 34°32' W 045°35'0 0.4 25.3
2014-Sep-28 18:24N 34°32' W 045°35'0 0.6 25.2
2014-Sep-28 17:54N 34°32' W 045°35'1 0.7 25.2
2014-Sep-28 16:14N 34°33' W 045°36'0 4.2 25.2
2014-Sep-28 16:08N 34°33' W 045°36'1 0.9 25.2
2014-Sep-28 14:59N 34°34' W 045°37'0 0.0 25.2
2014-Sep-28 14:32N 34°34' W 045°37'1 1.4 25.2
2014-Sep-28 14:11N 34°34' W 045°37'1 8.9 25.2
2014-Sep-28 14:05N 34°34' W 045°38'0 0.0 25.2
2014-Sep-28 12:27N 34°34' W 045°38'0 4.7 25.1
2014-Sep-28 12:24N 34°34' W 045°39'0 0.0 25.2
2014-Sep-28 11:41N 34°34' W 045°39'1 5.4 25.2
2014-Sep-28 11:35N 34°34' W 045°39'0 0.0 25.2
2014-Sep-28 10:54N 34°34' W 045°39'0 0.0 25.2
2014-Sep-28 10:13N 34°34' W 045°39'0 0.0 25.2
2014-Sep-28 09:45N 34°34' W 045°39'0 1.8 25.2
2014-Sep-28 09:43N 34°34' W 045°39'0 0.6 25.2
2014-Sep-28 09:13N 34°34' W 045°40'0 7.4 25.2
2014-Sep-28 09:11N 34°34' W 045°40'0 0.0 25.2
2014-Sep-28 08:37N 34°34' W 045°40'0 3.0 25.3
2014-Sep-28 08:28N 34°34' W 045°40'0 0.5
2014-Sep-28 08:07N 34°34' W 045°40'0 0.3 25.2
2014-Sep-28 07:37N 34°34' W 045°40'0 0.1 25.3
2014-Sep-28 06:59N 34°34' W 045°40'0 1.3 25.3
2014-Sep-28 06:50N 34°34' W 045°40'1 2.1 25.3
2014-Sep-28 06:31N 34°35' W 045°41'0 0.1 25.3
2014-Sep-28 04:51N 34°35' W 045°41'0 1.5 25.3
2014-Sep-28 04:47N 34°35' W 045°41'218.4 25.3
2014-Sep-28 04:40N 34°36' W 045°43'0 0.0 25.3
2014-Sep-28 01:45N 34°36' W 045°43'0 0.2
2014-Sep-28 00:59N 34°36' W 045°43'1 1.5 25.4
2014-Sep-28 00:12N 34°35' W 045°45'1 0.7 25.4
2014-Sep-27 23:23N 34°36' W 045°45'0 1.8 25.4
2014-Sep-27 23:14N 34°36' W 045°45'0 0.0 25.4
2014-Sep-27 22:33N 34°36' W 045°45'0 6.0 25.4
2014-Sep-27 22:29N 34°36' W 045°46'0 0.2 25.4
2014-Sep-27 21:00N 34°36' W 045°46'0 2.6 25.5
2014-Sep-27 20:53N 34°36' W 045°46'0 2.0 25.5
2014-Sep-27 20:44N 34°36' W 045°46'0 0.9 25.5
2014-Sep-27 20:14N 34°36' W 045°47'0 0.6 25.6
2014-Sep-27 19:22N 34°36' W 045°47'0 0.4 25.6
2014-Sep-27 18:35N 34°36' W 045°47'0 1.2 25.7
2014-Sep-27 18:30N 34°36' W 045°47'0 0.7 25.7
2014-Sep-27 18:05N 34°36' W 045°47'1 1.5 25.7
2014-Sep-27 17:38N 34°36' W 045°48'0 0.0 25.7
2014-Sep-27 16:52N 34°36' W 045°48'1 1.3 25.7
2014-Sep-27 16:25N 34°36' W 045°48'0 0.0 25.6
2014-Sep-27 14:44N 34°36' W 045°48'0 2.0 25.4
2014-Sep-27 14:33N 34°36' W 045°48'1 9.6 25.4
2014-Sep-27 14:26N 34°37' W 045°49'0 0.0 25.4
2014-Sep-27 13:43N 34°37' W 045°49'0 0.0 25.4
2014-Sep-27 12:55N 34°37' W 045°49'0 0.0 25.3
2014-Sep-27 12:51N 34°37' W 045°49'0 0.3 25.3
2014-Sep-27 12:00N 34°37' W 045°49'1 7.6 25.3
2014-Sep-27 11:56N 34°37' W 045°49'1 0.3 25.3
2014-Sep-27 10:13N 34°37' W 045°50'0 0.4 25.2
2014-Sep-27 09:42N 34°37' W 045°50'0 3.3 25.2
2014-Sep-27 09:35N 34°38' W 045°50'0 0.0 25.2
2014-Sep-27 08:52N 34°38' W 045°50'0 1.0 25.2
2014-Sep-27 08:49N 34°38' W 045°50'110.9 25.2
2014-Sep-27 08:45N 34°38' W 045°51'1 5.9 25.2
2014-Sep-27 08:38N 34°38' W 045°50'1 0.5 25.2
2014-Sep-27 07:11N 34°38' W 045°51'0 1.7 25.2
2014-Sep-27 07:00N 34°38' W 045°51'0 4.1
2014-Sep-27 06:56N 34°38' W 045°51'0 1.2 25.3
2014-Sep-27 06:42N 34°38' W 045°51'1 3.6 25.3
2014-Sep-27 06:31N 34°39' W 045°51'0 0.0 25.3
2014-Sep-27 04:59N 34°39' W 045°51'210.2 25.3
2014-Sep-27 04:50N 34°40' W 045°53'0 0.0 25.3
2014-Sep-27 01:21N 34°40' W 045°53'0 2.4 25.3
2014-Sep-27 01:14N 34°40' W 045°53'1 1.1 25.3
2014-Sep-27 00:33N 34°40' W 045°54'0 0.2 25.3
2014-Sep-26 22:58N 34°41' W 045°54'115.6 25.4
2014-Sep-26 22:55N 34°41' W 045°54'0 0.3 25.4
2014-Sep-26 22:00N 34°41' W 045°54'0 0.0 25.4
2014-Sep-26 21:24N 34°41' W 045°54'0 2.0 25.4
2014-Sep-26 21:13N 34°41' W 045°54'0 0.0 25.4
2014-Sep-26 20:27N 34°41' W 045°54'1 2.0 25.4
2014-Sep-26 19:46N 34°42' W 045°56'0 0.0 25.4
2014-Sep-26 19:39N 34°42' W 045°56'0 0.0 25.4
2014-Sep-26 18:47N 34°42' W 045°56'0 4.1 25.4
2014-Sep-26 18:42N 34°42' W 045°55'0 7.4 25.4
2014-Sep-26 18:40N 34°42' W 045°55'0 0.0 25.4
2014-Sep-26 18:13N 34°42' W 045°55'0 2.1 25.4
2014-Sep-26 18:04N 34°42' W 045°56'1 0.5 25.4
2014-Sep-26 17:04N 34°43' W 045°56'0 0.0 25.4
2014-Sep-26 16:37N 34°43' W 045°56'1 0.6 25.4
2014-Sep-26 14:55N 34°44' W 045°57'1 1.0 25.4
2014-Sep-26 14:00N 34°44' W 045°56'0 0.0
2014-Sep-26 13:14N 34°44' W 045°56'2 2.4 25.4
2014-Sep-26 12:22N 34°45' W 045°58'1 7.6 25.3
2014-Sep-26 12:13N 34°46' W 045°59'0 0.0 25.3
2014-Sep-26 10:44N 34°46' W 045°59'0 0.0 25.3
2014-Sep-26 10:08N 34°46' W 045°59'0 3.0 25.3
2014-Sep-26 10:03N 34°46' W 045°59'111.4 25.3
2014-Sep-26 09:59N 34°46' W 045°60'0 0.0 25.3
2014-Sep-26 09:09N 34°46' W 045°60'0 0.9 25.3
2014-Sep-26 08:58N 34°46' W 045°60'0 2.8 25.3
2014-Sep-26 08:53N 34°46' W 045°60'0 0.0 25.3
2014-Sep-26 08:25N 34°46' W 045°60'0 0.5 25.3
2014-Sep-26 07:28N 34°47' W 046°00'0 0.6 25.3
2014-Sep-26 07:13N 34°47' W 046°00'0 9.5 25.3
2014-Sep-26 07:11N 34°47' W 046°00'0 0.0 25.3
2014-Sep-26 06:52N 34°47' W 046°00'1 4.6 25.3
2014-Sep-26 06:41N 34°48' W 046°00'0 0.0 25.3
2014-Sep-26 05:10N 34°48' W 046°00'430.5 25.3
2014-Sep-26 05:03N 34°51' W 046°03'0 0.0 25.3
2014-Sep-26 01:42N 34°51' W 046°03'0 4.9 25.3
2014-Sep-26 01:36N 34°51' W 046°03'1 1.5 25.3
2014-Sep-26 00:55N 34°53' W 046°03'0 0.0 25.3
2014-Sep-25 23:58N 34°53' W 046°03'1 1.9 25.4
2014-Sep-25 23:28N 34°53' W 046°04'0 0.6 25.3
2014-Sep-25 23:12N 34°53' W 046°04'1 1.3 25.4
2014-Sep-25 22:22N 34°54' W 046°04'0 2.9 25.4
2014-Sep-25 22:17N 34°54' W 046°04'0 0.0 25.4
2014-Sep-25 21:55N 34°54' W 046°04'1 9.0 25.4
2014-Sep-25 21:48N 34°55' W 046°05'1 9.0 25.4
2014-Sep-25 21:44N 34°55' W 046°05'0 0.1 25.4
2014-Sep-25 20:38N 34°55' W 046°05'1 2.7 25.4
2014-Sep-25 20:08N 34°56' W 046°05'0 0.0 25.4
2014-Sep-25 18:59N 34°56' W 046°05'0 2.9 25.4
2014-Sep-25 18:51N 34°57' W 046°06'1 1.5 25.4
2014-Sep-25 18:26N 34°57' W 046°06'114.0 25.4
2014-Sep-25 18:21N 34°58' W 046°06'1 0.5 25.4
2014-Sep-25 17:13N 34°59' W 046°07'0 0.0 25.4
2014-Sep-25 16:47N 34°59' W 046°07'3 1.7 25.4
2014-Sep-25 15:05N 35°01' W 046°08'0 0.5 25.4
2014-Sep-25 14:24N 35°01' W 046°08'0 0.0 25.4
2014-Sep-25 13:36N 35°01' W 046°08'3 2.5 25.4
2014-Sep-25 12:35N 35°03' W 046°10'0 0.0 25.4
2014-Sep-25 11:49N 35°03' W 046°10'2 2.4 25.4
2014-Sep-25 10:59N 35°05' W 046°10'0 0.0 25.4
2014-Sep-25 10:27N 35°05' W 046°10'0 0.5 25.4
2014-Sep-25 09:37N 35°06' W 046°10'0 0.0 25.4
2014-Sep-25 09:14N 35°06' W 046°10'0 6.9 25.4
2014-Sep-25 09:12N 35°06' W 046°10'0 2.9 25.4
2014-Sep-25 09:05N 35°06' W 046°09'0 0.0 25.4
2014-Sep-25 08:49N 35°06' W 046°09'1 1.5 25.4
2014-Sep-25 07:59N 35°07' W 046°10'1 1.4 25.4
2014-Sep-25 07:32N 35°08' W 046°10'0 3.1 25.4
2014-Sep-25 07:28N 35°08' W 046°11'0 4.9 25.4
2014-Sep-25 07:23N 35°08' W 046°10'0 0.0 25.4
2014-Sep-25 07:11N 35°08' W 046°10'0 1.3 25.4
2014-Sep-25 07:00N 35°08' W 046°10'223.8 25.4
2014-Sep-25 06:55N 35°10' W 046°11'0 0.0 25.4
2014-Sep-25 05:20N 35°10' W 046°11'218.9 25.4
2014-Sep-25 05:13N 35°12' W 046°12'0 0.0 25.4
2014-Sep-25 03:40N 35°12' W 046°12'226.9 25.4
2014-Sep-25 03:35N 35°14' W 046°12'0 0.0 25.4
2014-Sep-25 01:58N 35°14' W 046°12'139.7 25.4
2014-Sep-25 01:57N 35°15' W 046°12'1 1.5 25.4
2014-Sep-25 01:14N 35°16' W 046°13'0 0.1 25.4
2014-Sep-25 00:24N 35°16' W 046°13'2 2.3 25.4
2014-Sep-24 23:32N 35°18' W 046°14'0 0.0 25.4
2014-Sep-24 22:44N 35°18' W 046°14'0 1.1 25.4
2014-Sep-24 22:37N 35°18' W 046°14'1 7.9 25.4
2014-Sep-24 22:26N 35°19' W 046°14'0 0.0 25.4
2014-Sep-24 20:48N 35°19' W 046°14'0 2.5 25.4
2014-Sep-24 20:43N 35°19' W 046°13'0 0.0 25.5
2014-Sep-24 20:36N 35°19' W 046°13'2 1.0 25.5
2014-Sep-24 19:10N 35°21' W 046°14'0 1.4 25.5
2014-Sep-24 19:05N 35°21' W 046°14'0 0.0 25.5
2014-Sep-24 18:54N 35°21' W 046°14'2 5.8 25.5
2014-Sep-24 18:34N 35°23' W 046°14'1 0.6 25.5
2014-Sep-24 17:27N 35°23' W 046°14'0 0.0 25.4
2014-Sep-24 16:58N 35°23' W 046°14'2 1.1 25.4
2014-Sep-24 15:13N 35°25' W 046°14'1 2.2 25.4
2014-Sep-24 14:43N 35°26' W 046°14'0 0.1 25.3
2014-Sep-24 13:54N 35°26' W 046°14'111.0 25.3
2014-Sep-24 13:47N 35°27' W 046°15'0 0.0 25.3
2014-Sep-24 12:11N 35°27' W 046°15'0 7.2 25.2
2014-Sep-24 12:09N 35°28' W 046°15'1 1.4 25.2
2014-Sep-24 11:19N 35°29' W 046°15'0 0.0 25.2
2014-Sep-24 10:53N 35°29' W 046°15'0 0.2 25.2
2014-Sep-24 10:10N 35°29' W 046°15'1 0.9 25.2
2014-Sep-24 09:23N 35°29' W 046°15'2 1.1 25.2
2014-Sep-24 07:40N 35°31' W 046°15'117.6 25.2
2014-Sep-24 07:36N 35°32' W 046°14'0 0.0 25.2
2014-Sep-24 07:27N 35°32' W 046°14'0 0.0 25.2
2014-Sep-24 07:13N 35°32' W 046°14'1 5.2 25.2
2014-Sep-24 07:06N 35°32' W 046°14'0 0.0 25.2
2014-Sep-24 06:50N 35°32' W 046°14'2 2.0 25.2
2014-Sep-24 05:57N 35°34' W 046°14'0 0.0 25.2
2014-Sep-24 05:32N 35°34' W 046°14'0 0.0 25.3
2014-Sep-24 05:26N 35°34' W 046°14'0 0.0 25.3
2014-Sep-24 03:52N 35°34' W 046°14'220.2 25.5
2014-Sep-24 03:46N 35°36' W 046°13'0 0.0 25.5
2014-Sep-24 01:34N 35°36' W 046°13'0 0.0 25.7
2014-Sep-24 00:46N 35°36' W 046°13'0 0.9 25.7
2014-Sep-24 00:41N 35°36' W 046°13'0 0.4 25.7
2014-Sep-23 23:56N 35°37' W 046°13'0 0.0 25.7
2014-Sep-23 23:55N 35°37' W 046°13'0 3.4 25.7
2014-Sep-23 23:51N 35°37' W 046°13'1 1.0 25.7
2014-Sep-23 22:59N 35°38' W 046°13'123.3 25.7
2014-Sep-23 22:56N 35°39' W 046°13'0 0.3 25.7
2014-Sep-23 21:07N 35°39' W 046°12'0 0.0 25.8
2014-Sep-23 21:00N 35°39' W 046°12'112.6 25.8
2014-Sep-23 20:56N 35°40' W 046°12'0 0.1 25.8
2014-Sep-23 19:31N 35°40' W 046°12'0 2.7 25.8
2014-Sep-23 19:22N 35°40' W 046°12'0 4.1 25.8
2014-Sep-23 19:18N 35°40' W 046°12'1 0.6 25.9
2014-Sep-23 17:40N 35°41' W 046°12'0 0.9 25.8
2014-Sep-23 17:10N 35°41' W 046°12'1 0.4 25.8
2014-Sep-23 15:26N 35°42' W 046°12'0 0.3 25.8
2014-Sep-23 14:13N 35°42' W 046°12'0 5.5 25.7
2014-Sep-23 14:08N 35°42' W 046°11'0 0.0 25.7
2014-Sep-23 13:14N 35°42' W 046°11'0 0.0 25.7
2014-Sep-23 12:33N 35°42' W 046°11'1 1.2 25.7
2014-Sep-23 11:45N 35°42' W 046°10'1 7.6 25.8
2014-Sep-23 11:36N 35°43' W 046°09'0 0.0 25.8
2014-Sep-23 10:39N 35°43' W 046°09'0 0.0 25.8
2014-Sep-23 09:42N 35°43' W 046°09'0 0.9 25.9
2014-Sep-23 09:33N 35°43' W 046°09'112.8 25.9
2014-Sep-23 09:28N 35°44' W 046°08'1 1.7 25.9
2014-Sep-23 08:59N 35°44' W 046°09'1 0.8 25.9
2014-Sep-23 07:57N 35°44' W 046°08'0 0.0 25.9
2014-Sep-23 07:53N 35°44' W 046°08'1 3.8 25.9
2014-Sep-23 07:44N 35°44' W 046°08'0 0.5
2014-Sep-23 07:23N 35°45' W 046°08'1 7.2 25.9
2014-Sep-23 07:18N 35°45' W 046°07'0 0.0 25.9
2014-Sep-23 06:13N 35°45' W 046°07'0 2.9 25.9
2014-Sep-23 06:08N 35°45' W 046°07'0 0.0 25.9
2014-Sep-23 05:45N 35°45' W 046°07'0 0.0 25.9
2014-Sep-23 05:41N 35°45' W 046°07'0 5.4 25.9
2014-Sep-23 05:38N 35°45' W 046°07'1 0.5 25.9
2014-Sep-23 04:00N 35°46' W 046°06'010.7 26.0
2014-Sep-23 03:58N 35°46' W 046°07'1 0.6 26.0
2014-Sep-23 01:53N 35°46' W 046°05'0 0.0 26.0
2014-Sep-23 01:07N 35°46' W 046°05'0 0.4 26.0
2014-Sep-23 01:00N 35°46' W 046°05'1 1.2 26.0
2014-Sep-23 00:19N 35°47' W 046°04'0 0.0 26.0
2014-Sep-23 00:13N 35°47' W 046°04'0 7.5 26.0
2014-Sep-23 00:10N 35°46' W 046°04'1 1.3
2014-Sep-22 23:18N 35°47' W 046°03'0 0.0 26.0
2014-Sep-22 22:37N 35°47' W 046°03'0 0.0 26.0
2014-Sep-22 21:49N 35°47' W 046°03'0 1.0 26.0
2014-Sep-22 21:24N 35°46' W 046°04'2 7.5 26.0
2014-Sep-22 21:08N 35°47' W 046°01'1 0.7 26.0
2014-Sep-22 20:07N 35°47' W 046°02'1 5.8 26.0
2014-Sep-22 20:00N 35°47' W 046°01'1 3.6 26.0
2014-Sep-22 19:46N 35°47' W 046°02'1 3.9 26.0
2014-Sep-22 19:33N 35°47' W 046°01'1 0.7 26.0
2014-Sep-22 18:02N 35°48' W 046°01'1 3.9 26.0
2014-Sep-22 17:52N 35°48' W 046°01'1 1.2 26.0
2014-Sep-22 17:21N 35°47' W 046°00'0 0.1 26.0
2014-Sep-22 15:40N 35°47' W 046°00'0 7.0 25.9
2014-Sep-22 15:38N 35°47' W 045°60'1 0.7 25.9
2014-Sep-22 14:35N 35°47' W 045°59'1 1.4 25.9
2014-Sep-22 13:45N 35°48' W 045°58'0 0.0 25.9
2014-Sep-22 12:59N 35°48' W 045°58'1 6.9 25.9
2014-Sep-22 12:48N 35°48' W 045°56'0 0.0 25.9
2014-Sep-22 12:06N 35°48' W 045°56'1 6.8 25.9
2014-Sep-22 11:58N 35°48' W 045°55'0 0.0 25.9
2014-Sep-22 10:06N 35°48' W 045°55'0 1.5 25.9
2014-Sep-22 09:57N 35°48' W 045°55'0 0.0 25.9
2014-Sep-22 09:47N 35°48' W 045°55'213.6 25.9
2014-Sep-22 09:39N 35°49' W 045°53'0 0.0 25.9
2014-Sep-22 08:23N 35°49' W 045°53'0 0.0 25.9
2014-Sep-22 08:05N 35°49' W 045°53'0 0.0 25.9
2014-Sep-22 07:56N 35°49' W 045°53'0 1.0 25.9
2014-Sep-22 07:29N 35°49' W 045°52'1 0.5 26.0
2014-Sep-22 06:20N 35°49' W 045°52'0 0.2 26.0
2014-Sep-22 05:53N 35°49' W 045°52'0 4.6 26.0
2014-Sep-22 05:48N 35°49' W 045°51'0 0.0 26.0
2014-Sep-22 04:13N 35°49' W 045°51'218.4 26.0
2014-Sep-22 04:08N 35°49' W 045°50'0 0.0 26.0
2014-Sep-22 01:25N 35°49' W 045°50'1 8.4 26.0
2014-Sep-22 01:18N 35°49' W 045°48'0 0.1 26.0
2014-Sep-22 00:39N 35°49' W 045°48'0 0.0 26.0
2014-Sep-21 23:53N 35°49' W 045°48'0 0.0 26.0
2014-Sep-21 23:47N 35°49' W 045°48'0 0.4 26.0
2014-Sep-21 23:40N 35°49' W 045°48'0 0.3 26.0
2014-Sep-21 22:57N 35°49' W 045°48'1 5.0 26.1
2014-Sep-21 22:50N 35°49' W 045°47'0 0.0 26.1
2014-Sep-21 22:20N 35°49' W 045°47'1 2.9 26.1
2014-Sep-21 22:04N 35°49' W 045°47'2 5.7 26.1
2014-Sep-21 21:42N 35°48' W 045°45'0 0.0 26.1
2014-Sep-21 20:31N 35°48' W 045°45'0 0.3 26.1
2014-Sep-21 20:10N 35°48' W 045°45'0 0.0 26.1
2014-Sep-21 19:45N 35°48' W 045°45'0 0.2 26.1
2014-Sep-21 18:30N 35°48' W 045°45'0 3.6 26.1
2014-Sep-21 18:26N 35°48' W 045°45'1 2.2 26.1
2014-Sep-21 18:00N 35°48' W 045°44'1 1.4 26.2
2014-Sep-21 17:31N 35°48' W 045°43'1 0.5 26.2
2014-Sep-21 15:51N 35°48' W 045°42'0 1.5 26.2
2014-Sep-21 15:49N 35°48' W 045°42'2 2.2 26.2
2014-Sep-21 14:51N 35°48' W 045°39'0 0.0 26.2
2014-Sep-21 14:06N 35°48' W 045°39'0 0.0 26.2
2014-Sep-21 13:12N 35°48' W 045°39'0 0.5 26.2
2014-Sep-21 12:24N 35°48' W 045°39'1 6.6 26.2
2014-Sep-21 12:19N 35°48' W 045°38'0 0.0 26.2
2014-Sep-21 11:36N 35°48' W 045°38'111.0 26.2
2014-Sep-21 11:31N 35°49' W 045°38'0 0.0 26.2
2014-Sep-21 10:28N 35°49' W 045°38'111.9 26.2
2014-Sep-21 10:25N 35°49' W 045°37'0 1.2 26.2
2014-Sep-21 10:00N 35°48' W 045°38'0 1.8 26.2
2014-Sep-21 09:51N 35°49' W 045°37'0 0.1 26.2
2014-Sep-21 08:52N 35°49' W 045°37'0 1.4 26.2
2014-Sep-21 08:47N 35°49' W 045°37'0 0.8 26.2
2014-Sep-21 08:20N 35°48' W 045°37'0 0.0 26.2
2014-Sep-21 08:13N 35°48' W 045°37'115.6 26.2
2014-Sep-21 08:11N 35°49' W 045°36'0 0.0 26.2
2014-Sep-21 07:43N 35°49' W 045°36'0 0.0 26.2
2014-Sep-21 07:09N 35°49' W 045°36'0 1.0 26.2
2014-Sep-21 06:45N 35°49' W 045°37'0 3.2 26.2
2014-Sep-21 06:37N 35°48' W 045°37'0 3.4 26.2
2014-Sep-21 06:29N 35°48' W 045°36'0 0.0 26.2
2014-Sep-21 06:06N 35°48' W 045°36'1 7.5 26.2
2014-Sep-21 05:59N 35°48' W 045°35'0 0.0 26.2
2014-Sep-21 04:25N 35°48' W 045°35'319.8 26.2
2014-Sep-21 04:17N 35°46' W 045°33'0 0.0 26.2
2014-Sep-21 01:46N 35°46' W 045°33'0 0.0 26.2
2014-Sep-21 01:00N 35°46' W 045°33'134.7 26.2
2014-Sep-21 00:58N 35°46' W 045°31'0 0.0 26.2
2014-Sep-21 00:08N 35°46' W 045°31'0 0.0 26.2
2014-Sep-20 23:59N 35°46' W 045°31'0 0.0 26.2
2014-Sep-20 23:13N 35°46' W 045°31'119.7 26.2
2014-Sep-20 23:11N 35°46' W 045°31'0 0.9 26.2
2014-Sep-20 22:49N 35°46' W 045°30'0 0.0 26.2
2014-Sep-20 22:26N 35°46' W 045°30'214.7 26.2
2014-Sep-20 22:19N 35°46' W 045°28'0 0.0 26.2
2014-Sep-20 21:02N 35°46' W 045°28'0 0.2 26.3
2014-Sep-20 20:34N 35°46' W 045°28'0 0.5 26.3
2014-Sep-20 19:55N 35°46' W 045°28'1 4.0 26.3
2014-Sep-20 19:47N 35°46' W 045°27'0 0.1 26.3
2014-Sep-20 18:54N 35°46' W 045°27'1 1.7 26.3
2014-Sep-20 18:13N 35°47' W 045°26'0 0.2 26.3
2014-Sep-20 17:43N 35°47' W 045°26'1 0.3 26.4
2014-Sep-20 15:59N 35°46' W 045°25'1 0.9 26.4
2014-Sep-20 14:26N 35°46' W 045°23'   26.4

Dump ship's entire track history